createdAt,value
2022-10-17T00:01:16.210Z,11.77
2022-10-17T00:06:18.869Z,11.70
2022-10-17T00:11:23.036Z,11.59
2022-10-17T00:16:32.431Z,11.57
2022-10-17T00:21:35.106Z,11.59
2022-10-17T00:26:37.777Z,11.62
2022-10-17T00:31:40.913Z,11.56
2022-10-17T00:36:43.651Z,11.53
2022-10-17T00:41:46.315Z,11.57
2022-10-17T00:46:48.952Z,11.60
2022-10-17T00:52:00.175Z,11.57
2022-10-17T00:57:02.957Z,11.53
2022-10-17T01:02:14.402Z,11.51
2022-10-17T01:07:17.216Z,11.50
2022-10-17T01:12:46.389Z,11.53
2022-10-17T01:18:21.483Z,11.54
2022-10-17T01:24:08.483Z,11.44
2022-10-17T01:29:37.936Z,11.49
2022-10-17T01:35:02.618Z,11.57
2022-10-17T01:40:26.011Z,11.60
2022-10-17T01:45:37.232Z,11.74
2022-10-17T01:50:45.716Z,11.85
2022-10-17T01:55:48.623Z,11.90
2022-10-17T02:00:51.448Z,11.95
2022-10-17T02:05:54.656Z,12.00
2022-10-17T02:11:01.814Z,12.05
2022-10-17T02:16:42.722Z,12.04
2022-10-17T02:21:55.116Z,12.03
2022-10-17T02:27:13.850Z,11.97
2022-10-17T02:37:30.666Z,11.94
2022-10-17T02:42:33.729Z,11.88
2022-10-17T02:47:43.650Z,11.72
2022-10-17T02:53:03.722Z,11.60
2022-10-17T02:58:14.928Z,11.64
2022-10-17T03:03:24.323Z,11.60
2022-10-17T03:08:27.182Z,11.53
2022-10-17T03:13:30.202Z,11.43
2022-10-17T03:18:33.459Z,11.27
2022-10-17T03:23:36.198Z,11.15
2022-10-17T03:28:38.989Z,11.13
2022-10-17T03:33:41.777Z,11.10
2022-10-17T03:38:44.617Z,11.08
2022-10-17T03:43:47.387Z,11.07
2022-10-17T03:48:50.241Z,11.07
2022-10-17T03:53:52.916Z,11.06
2022-10-17T03:58:56.036Z,11.02
2022-10-17T04:03:58.653Z,10.97
2022-10-17T04:09:01.652Z,10.95
2022-10-17T04:14:04.534Z,10.98
2022-10-17T04:19:07.251Z,10.97
2022-10-17T04:24:11.574Z,10.94
2022-10-17T04:29:15.229Z,10.86
2022-10-17T04:34:17.979Z,10.86
2022-10-17T04:39:20.757Z,10.90
2022-10-17T04:44:23.925Z,10.93
2022-10-17T04:49:26.616Z,10.97
2022-10-17T04:54:29.252Z,11.08
2022-10-17T04:59:31.981Z,11.19
2022-10-17T05:04:34.731Z,11.25
2022-10-17T05:09:37.443Z,11.24
2022-10-17T05:14:40.139Z,11.28
2022-10-17T05:19:42.849Z,11.34
2022-10-17T05:24:45.484Z,11.38
2022-10-17T05:29:48.923Z,11.44
2022-10-17T05:34:51.630Z,11.60
2022-10-17T05:39:54.389Z,11.72
2022-10-17T05:45:03.387Z,11.76
2022-10-17T05:50:07.694Z,11.76
2022-10-17T05:55:11.467Z,11.82
2022-10-17T06:00:14.328Z,11.97
2022-10-17T06:05:18.505Z,12.15
2022-10-17T06:10:21.281Z,12.32
2022-10-17T06:15:26.482Z,12.41
2022-10-17T06:20:29.156Z,12.50
2022-10-17T06:25:32.560Z,12.61
2022-10-17T06:30:35.239Z,12.63
2022-10-17T06:35:38.306Z,12.62
2022-10-17T06:40:41.074Z,12.71
2022-10-17T06:45:45.724Z,12.72
2022-10-17T06:50:48.536Z,12.78
2022-10-17T06:56:01.489Z,12.91
2022-10-17T07:01:10.654Z,13.05
2022-10-17T07:06:13.442Z,13.07
2022-10-17T07:11:19.181Z,13.15
2022-10-17T07:16:22.517Z,13.25
2022-10-17T07:21:25.386Z,13.37
2022-10-17T07:26:28.161Z,13.53
2022-10-17T07:31:31.626Z,13.67
2022-10-17T07:36:34.334Z,13.78
2022-10-17T07:41:37.792Z,13.92
2022-10-17T07:46:40.586Z,14.01
2022-10-17T07:51:43.434Z,14.11
2022-10-17T07:56:50.603Z,14.25
2022-10-17T08:01:56.609Z,14.38
2022-10-17T08:07:18.364Z,14.50
2022-10-17T08:12:24.311Z,14.67
2022-10-17T08:17:27.185Z,14.86
2022-10-17T08:22:30.289Z,15.10
2022-10-17T08:27:35.238Z,15.34
2022-10-17T08:32:38.004Z,15.58
2022-10-17T08:37:41.839Z,15.71
2022-10-17T08:43:13.010Z,15.78
2022-10-17T08:48:21.853Z,15.92
2022-10-17T08:53:45.367Z,16.03
2022-10-17T08:58:48.052Z,16.13
2022-10-17T09:04:41.985Z,16.22
2022-10-17T09:10:10.351Z,16.37
2022-10-17T09:15:31.413Z,16.57
2022-10-17T09:20:39.108Z,16.73
2022-10-17T09:25:45.121Z,16.89
2022-10-17T09:31:02.343Z,17.07
2022-10-17T09:36:32.902Z,17.25
2022-10-17T09:41:46.528Z,17.49
2022-10-17T09:47:28.469Z,17.68
2022-10-17T09:52:36.764Z,17.80
2022-10-17T09:57:58.558Z,17.92
2022-10-17T10:03:20.459Z,18.06
2022-10-17T10:08:23.634Z,18.24
2022-10-17T10:13:27.045Z,18.32
2022-10-17T10:18:35.868Z,18.39
2022-10-17T10:23:41.463Z,18.50
2022-10-17T10:29:00.110Z,18.63
2022-10-17T10:34:20.500Z,18.82
2022-10-17T10:39:42.712Z,18.94
2022-10-17T10:44:45.377Z,19.11
2022-10-17T10:49:48.224Z,19.22
2022-10-17T10:55:01.207Z,19.34
2022-10-17T11:00:17.481Z,19.48
2022-10-17T11:05:43.171Z,19.63
2022-10-17T11:11:18.048Z,19.80
2022-10-17T11:16:55.974Z,20.04
2022-10-17T11:22:09.581Z,20.15
2022-10-17T11:27:12.282Z,20.22
2022-10-17T11:32:47.854Z,20.33
2022-10-17T11:38:24.306Z,20.45
2022-10-17T11:43:34.268Z,20.51
2022-10-17T11:48:52.782Z,20.53
2022-10-17T11:54:07.393Z,20.49
2022-10-17T11:59:42.574Z,20.49
2022-10-17T12:05:18.533Z,20.49
2022-10-17T12:10:45.141Z,20.52
2022-10-17T12:15:47.992Z,20.53
2022-10-17T12:21:00.539Z,20.57
2022-10-17T12:26:05.883Z,20.79
2022-10-17T12:31:23.166Z,21.02
2022-10-17T12:36:28.088Z,21.12
2022-10-17T12:41:40.072Z,21.18
2022-10-17T12:46:57.454Z,21.21
2022-10-17T12:52:22.229Z,21.16
2022-10-17T12:58:00.845Z,21.09
2022-10-17T13:03:23.059Z,21.04
2022-10-17T13:08:34.303Z,20.90
2022-10-17T13:14:05.505Z,20.80
2022-10-17T13:19:18.979Z,20.76
2022-10-17T13:24:37.194Z,20.74
2022-10-17T13:29:44.139Z,20.73
2022-10-17T13:34:46.806Z,20.68
2022-10-17T13:39:55.610Z,20.68
2022-10-17T13:45:00.886Z,20.67
2022-10-17T13:50:09.459Z,20.68
2022-10-17T13:55:22.024Z,20.65
2022-10-17T14:00:25.073Z,20.58
2022-10-17T14:05:27.993Z,20.57
2022-10-17T14:10:32.572Z,20.54
2022-10-17T14:15:36.447Z,20.51
2022-10-17T14:26:13.993Z,20.67
2022-10-17T14:31:30.178Z,20.72
2022-10-17T14:36:38.470Z,20.62
2022-10-17T14:41:45.973Z,20.34
2022-10-17T14:46:52.689Z,20.03
2022-10-17T14:52:18.627Z,19.77
2022-10-17T14:57:31.588Z,19.72
2022-10-17T15:02:34.935Z,19.57
2022-10-17T15:07:37.689Z,19.39
2022-10-17T15:12:47.917Z,19.13
2022-10-17T15:18:00.578Z,18.93
2022-10-17T15:23:03.390Z,18.74
2022-10-17T15:28:06.135Z,18.52
2022-10-17T15:33:09.370Z,18.35
2022-10-17T15:38:13.840Z,18.20
2022-10-17T15:43:19.842Z,18.03
2022-10-17T15:48:28.299Z,17.84
2022-10-17T15:53:31.593Z,17.63
2022-10-17T15:58:37.609Z,17.48
2022-10-17T16:03:40.485Z,17.37
2022-10-17T16:08:43.157Z,17.24
2022-10-17T16:13:51.697Z,17.07
2022-10-17T16:18:54.637Z,16.93
2022-10-17T16:23:57.341Z,16.80
2022-10-17T16:29:03.591Z,16.64
2022-10-17T16:34:06.879Z,16.49
2022-10-17T16:39:09.632Z,16.35
2022-10-17T16:44:15.601Z,16.19
2022-10-17T16:49:18.373Z,16.03
2022-10-17T16:54:21.804Z,15.90
2022-10-17T16:59:24.523Z,15.82
2022-10-17T17:04:27.262Z,15.74
2022-10-17T17:09:30.039Z,15.64
2022-10-17T17:14:32.778Z,15.55
2022-10-17T17:19:35.494Z,15.51
2022-10-17T17:24:38.212Z,15.42
2022-10-17T17:29:40.984Z,15.30
2022-10-17T17:34:43.693Z,15.21
2022-10-17T17:39:46.401Z,15.15
2022-10-17T17:44:49.741Z,15.03
2022-10-17T17:49:52.410Z,14.94
2022-10-17T17:54:55.682Z,14.88
2022-10-17T17:59:58.501Z,14.80
2022-10-17T18:05:01.456Z,14.70
2022-10-17T18:10:05.276Z,14.60
2022-10-17T18:15:08.837Z,14.55
2022-10-17T18:20:12.125Z,14.53
2022-10-17T18:25:15.044Z,14.45
2022-10-17T18:30:19.233Z,14.38
2022-10-17T18:35:24.421Z,14.34
2022-10-17T18:40:28.275Z,14.31
2022-10-17T18:45:31.083Z,14.30
2022-10-17T18:50:34.266Z,14.25
2022-10-17T18:55:39.690Z,14.19
2022-10-17T19:00:42.480Z,14.15
2022-10-17T19:05:46.336Z,14.16
2022-10-17T19:10:49.084Z,14.12
2022-10-17T19:15:51.717Z,14.05
2022-10-17T19:20:54.360Z,14.02
2022-10-17T19:26:12.000Z,13.97
2022-10-17T19:31:16.996Z,13.93
2022-10-17T19:36:22.188Z,13.84
2022-10-17T19:41:27.093Z,13.81
2022-10-17T19:46:31.103Z,13.76
2022-10-17T19:51:34.018Z,13.74
2022-10-17T19:56:38.047Z,13.66
2022-10-17T20:01:41.463Z,13.61
2022-10-17T20:06:44.334Z,13.51
2022-10-17T20:11:49.112Z,13.41
2022-10-17T20:16:52.276Z,13.38
2022-10-17T20:21:54.962Z,13.36
2022-10-17T20:26:57.663Z,13.35
2022-10-17T20:32:00.955Z,13.32
2022-10-17T20:37:04.374Z,13.32
2022-10-17T20:42:08.999Z,13.33
2022-10-17T20:47:16.164Z,13.32
2022-10-17T20:52:19.169Z,13.30
2022-10-17T20:57:21.900Z,13.28
2022-10-17T21:02:24.531Z,13.25
2022-10-17T21:07:27.267Z,13.20
2022-10-17T21:12:36.635Z,13.15
2022-10-17T21:17:45.953Z,13.13
2022-10-17T21:22:48.610Z,13.11
2022-10-17T21:27:54.504Z,13.00
2022-10-17T21:32:57.427Z,12.92
2022-10-17T21:38:00.535Z,12.85
2022-10-17T21:43:03.442Z,12.87
2022-10-17T21:48:14.482Z,12.85
2022-10-17T21:53:37.635Z,12.79
2022-10-17T21:58:40.881Z,12.74
2022-10-17T22:03:46.910Z,12.65
2022-10-17T22:08:50.034Z,12.62
2022-10-17T22:14:03.762Z,12.61
2022-10-17T22:19:07.599Z,12.61
2022-10-17T22:24:12.924Z,12.56
2022-10-17T22:29:15.613Z,12.51
2022-10-17T22:34:18.649Z,12.45
2022-10-17T22:39:21.325Z,12.38
2022-10-17T22:44:23.976Z,12.30
2022-10-17T22:49:26.693Z,12.27
2022-10-17T22:54:29.517Z,12.21
2022-10-17T22:59:32.458Z,12.14
2022-10-17T23:04:35.320Z,12.14
2022-10-17T23:09:39.054Z,12.16
2022-10-17T23:14:43.632Z,12.20
2022-10-17T23:19:46.379Z,12.19
2022-10-17T23:24:49.035Z,12.19
2022-10-17T23:29:51.693Z,12.21
2022-10-17T23:34:54.362Z,12.25
2022-10-17T23:39:57.085Z,12.19
2022-10-17T23:44:59.770Z,12.12
2022-10-17T23:50:02.723Z,12.08
2022-10-17T23:55:06.177Z,12.09
